Aeroporto :
LOGIN :

Iscrizione | Disclaimer

   EN    FR    IT 

 










Sommario :    VFR   VFR Marginale   IFR   IFR Intensivo   IFR Molto Intensivo
Visibilità : 
Base nubi : 
>= 8 km
>= 3000ft
5 / 8 km
1000 / 3000 ft
1500m / 5 km
500 / 1000 ft
800 / 1500m
200 / 500 ft
< 800m
< 200 ft
Simboli :   Temporali  Nebbia  Neve Forte  Precipitazioni Forti  Vento > 20 kt
SIGMETs :   Varie  Temporali  Ghiacco  Turbolenza  Onda orograficha  Ceneri Vulcaniche






- Altitudine del aeroporto : 287 ft


LFRL - Lanveoc Poulmic

ULTIMO METAR :
  • 270230Z AUTO 23021KT 3700 -RA BR OVC003/// ///TCU 11/11 Q0999

METARs OBSOLETI :
  • 270200Z AUTO 22019G30KT 4800 -DZ BR OVC004/// ///TCU 11/10 Q0999
  • 270130Z AUTO 21019G29KT 3400 -RA BR OVC004/// ///TCU 10/10 Q1000
  • 270100Z AUTO 20016KT 4400 -RA BR OVC003/// ///TCU 10/09 Q1001
  • 270030Z AUTO 19016KT 160V220 6000 -RA OVC004/// ///TCU 09/09 Q1002
  • 270000Z AUTO 18015KT 4600 -RA BR OVC004/// ///TCU 08/08 Q1004
  • 262330Z AUTO 18014KT 5000 -RA BR OVC004 08/07 Q1005

TAF TAF LFRL
Valido dal 26 a 12 ore il 27 a 12 ore UTC


261100Z 2612/2712 29010G20KT 9999 SCT040
PROB30
TEMPO 2612/2615 4000 SHRA SCT025TCU
BECMG 2615/2618 24005KT
BECMG 2619/2621 18015G25KT 3000 RA BKN004 OVC009
TEMPO 2700/2706 23020G35KT 1400 RADZ OVC002
BECMG 2706/2708 30020G35KT 9999 NSW SCT015 BKN020



MetMap, La meteo Aeronautica in un colpo d'occhio ! - Copyright ORBIFLY Dicembre 2007 - Disclaimer

ORBIFLY MET'MAP TEAM :

Programmazione e sviluppo : Alexandra Zaïnal
Concezione : Baudouin d'Aumeries
Aiuto per la programmazione : Marc-Olivier Méhu
Supporto tecnico e logistico : Manuel Goepfert
Aiuto per la traduzione : Arnaldo La Scala

Contatto : metmap@orbifly.com




FONTI E CREDITI :

   NOAA